METAR Data

Data at: 0411 UTC 30 Jun 2022

METAR for:LIPZ (Venice/Polo Arpt, VE, IT)
Text:LIPZ 300350Z 03006KT 8000 NSC 21/19 Q1011 NOSIG
Temperature: 21.0°C ( 70°F)
Dewpoint: 19.0°C ( 66°F) [RH = 88%]
Pressure (altimeter):29.85 inches Hg (1011.0 mb)
Winds:from the NNE (30 degrees) at 7 MPH (6 knots; 3.1 m/s)
Visibility: 5 sm ( 8 km)
Ceiling:at least 12,000 feet AGL
Clouds:sky clear below 12,000 feet AGL

TAF for:LIPZ (Venice/Polo Arpt, VE, IT) issued at 2300 UTC 29 Jun 2022
Text:TAF LIPZ 292300Z 3000/0106 06004KT CAVOK
Forecast period:0000 to 1000 UTC 30 June 2022
Forecast type:FROM: standard forecast or significant change
Winds:from the ENE (60 degrees) at 5 MPH (4 knots; 2.1 m/s)
Visibility:6 or more sm (10+ km)
Clouds:missing
Weather:NSW (no significant weather)
Text:BECMG 3010/3012 15010KT
Forecast period:1000 to 2200 UTC 30 June 2022
Forecast type:BECOMING: Conditions expected to become as follows by 1200 UTC 30 June 2022
Winds:from the SSE (150 degrees) at 12 MPH (10 knots; 5.1 m/s)
Visibility:6 or more sm (10+ km)
Clouds:missing
Weather:NSW (no significant weather)
Text:BECMG 3022/3024 04006KT
Forecast period:2200 UTC 30 June 2022 to 0600 UTC 01 July 2022
Forecast type:BECOMING: Conditions expected to become as follows by 0000 UTC 01 July 2022
Winds:from the NE (40 degrees) at 7 MPH (6 knots; 3.1 m/s)
Visibility:6 or more sm (10+ km)
Clouds:missing
Weather:NSW (no significant weather)